Fort Lauderdale Executive Airport
KFXE : now visible

Airfield :











YOU CAN JOIN US ON...

 
LOGIN :

Register | Disclaimer

   EN    FR    IT 

 









Legend :    VFR   Marginal VFR   IFR   Intensive IFR   Very Intensive IFR
Visi :
Ceiling :
>= 8 km
>= 3000ft
5 to 8 km
1000 to 3000 ft
1500m to 5 km
500 to 1000 ft
800 to 1500m
200 to 500 ft
< 800m
< 200 ft
Symbols :   Thunderstorms  Fog  Heavy snow  Heavy precipitations  Wind > 20 kt






- Airport Elevation : 13 ft


KFXE - Fort Lauderdale Executive

CURRENT METAR :
  • 230153Z 25006KT 10SM CLR 19/14 A3004 RMK AO2 SLP175 T01890144

EXPIRED METARs :
  • 230053Z 20003KT 10SM CLR 21/14 A3003 RMK AO2 SLP170 T02110144
  • 222353Z 20003KT 10SM CLR 22/14 A3001 RMK AO2 SLP165 T02220144 10261 20222 53010

TAF KFXE
Valid from the 23 at 00:00 until the 24 at 00:00 UTC


222325Z 2300/2324 24006KT P6SM FEW050
FM230100 VRB03KT P6SM FEW015 FEW250
FM231600 08008KT P6SM FEW050 SCT250
KZMA FIR / North America



MET'MAP, your aeronautical weather chart ! - Copyright ORBIFLY December 2007 - Disclaimer

ORBIFLY MET'MAP TEAM :

Programming & Development : Alexandra Zaïnal
Concept & original design : Baudouin d'Aumeries
Assistance for programming : Marc-Olivier Méhu
Technical & hardware support : Manuel Goepfert

Contact : metmap@orbifly.com




SOURCES & CREDITS :

   NOAA       Earth
Advisory